Time;durP1;ratioP1;P1;durP2;ratioP2;P2;SDS_P1;SDS_P2;PMS_P1;PMS_P2;Temp;Humidity;BMP_temperature;BMP_pressure;BME280_temperature;BME280_humidity;BME280_pressure;Samples;Min_cycle;Max_cycle;Signal;HPM_P1;HPM_P2
2021/08/16 00:00:56;;;;;;;;;;;17.60;81.20;;;;;;4993970;28;19909;-76
2021/08/16 00:03:21;;;;;;;;;;;17.70;82.10;;;;;;4977052;28;19957;-76
2021/08/16 00:05:47;;;;;;;;;;;17.70;81.30;;;;;;4976622;28;19926;-76
2021/08/16 00:08:12;;;;;;;;;;;17.70;81.50;;;;;;4994784;28;20319;-76
2021/08/16 00:10:38;;;;;;;;;;;17.70;81.50;;;;;;4976964;28;20446;-74
2021/08/16 00:13:03;;;;;;;;;;;17.70;81.70;;;;;;4976940;28;20274;-75
2021/08/16 00:15:29;;;;;;;;;;;17.70;81.60;;;;;;4977049;28;19912;-75
2021/08/16 00:17:56;;;;;;;;;;;17.70;81.60;;;;;;4993974;28;20393;-75
2021/08/16 00:20:22;;;;;;;;;;;17.70;81.50;;;;;;4976805;28;19929;-75
2021/08/16 00:22:47;;;;;;;;;;;17.80;81.60;;;;;;4976830;28;20334;-74
2021/08/16 00:25:13;;;;;;;;;;;17.80;81.70;;;;;;4993478;28;19906;-76
2021/08/16 00:27:38;;;;;;;;;;;17.80;81.60;;;;;;4993774;28;20286;-76
2021/08/16 00:30:04;;;;;;;;;;;17.80;81.50;;;;;;4976068;28;19905;-76
2021/08/16 00:32:30;;;;;;;;;;;17.80;81.50;;;;;;4994124;28;19913;-77
2021/08/16 00:34:55;;;;;;;;;;;17.80;81.50;;;;;;4978171;28;19905;-76
2021/08/16 00:37:21;;;;;;;;;;;17.90;81.70;;;;;;5006300;28;19905;-76
2021/08/16 00:39:46;;;;;;;;;;;17.80;81.50;;;;;;5004615;28;19913;-76
2021/08/16 00:42:12;;;;;;;;;;;17.80;81.60;;;;;;4976744;28;19906;-76
2021/08/16 00:44:38;;;;;;;;;;;17.80;81.60;;;;;;4976648;28;20418;-76
2021/08/16 00:47:04;;;;;;;;;;;17.80;81.70;;;;;;5009046;28;20008;-76
2021/08/16 00:49:30;;;;;;;;;;;17.80;81.70;;;;;;4993914;28;19913;-76
2021/08/16 00:51:55;;;;;;;;;;;17.80;81.80;;;;;;4993708;28;19906;-76
2021/08/16 00:54:22;;;;;;;;;;;17.80;81.90;;;;;;4993742;28;20335;-76
2021/08/16 00:56:47;;;;;;;;;;;17.80;82.00;;;;;;4994365;28;19912;-76
2021/08/16 00:59:13;;;;;;;;;;;17.70;82.10;;;;;;4996839;28;20250;-76
2021/08/16 01:01:39;;;;;;;;;;;17.60;82.20;;;;;;4999520;28;19905;-75
2021/08/16 01:04:05;;;;;;;;;;;17.60;82.60;;;;;;4998486;28;19941;-75
2021/08/16 01:06:30;;;;;;;;;;;17.60;82.60;;;;;;4998530;28;19933;-77
2021/08/16 01:08:56;;;;;;;;;;;17.60;82.60;;;;;;4994116;28;19922;-76
2021/08/16 01:11:22;;;;;;;;;;;17.60;82.60;;;;;;4983380;28;19906;-76
2021/08/16 01:13:48;;;;;;;;;;;17.60;82.50;;;;;;4980096;28;19906;-76
2021/08/16 01:16:14;;;;;;;;;;;17.60;82.70;;;;;;4979208;28;19912;-76
2021/08/16 01:18:40;;;;;;;;;;;17.60;82.80;;;;;;4996994;28;19961;-76
2021/08/16 01:21:06;;;;;;;;;;;17.60;82.90;;;;;;4979118;28;20319;-74
2021/08/16 01:23:32;;;;;;;;;;;17.60;83.10;;;;;;4996606;28;20354;-75
2021/08/16 01:25:58;;;;;;;;;;;17.60;83.10;;;;;;4979244;28;19913;-74
2021/08/16 01:28:23;;;;;;;;;;;17.60;83.10;;;;;;4979029;28;19964;-75
2021/08/16 01:30:53;;;;;;;;;;;17.60;83.20;;;;;;4996925;28;19912;-76
2021/08/16 01:33:19;;;;;;;;;;;17.60;83.40;;;;;;4979037;28;19905;-76
2021/08/16 01:35:44;;;;;;;;;;;17.50;83.50;;;;;;4996798;28;20381;-76
2021/08/16 01:38:10;;;;;;;;;;;17.60;83.30;;;;;;4979333;28;19905;-76
2021/08/16 01:40:35;;;;;;;;;;;17.60;83.30;;;;;;4979272;28;19945;-75
2021/08/16 01:43:01;;;;;;;;;;;17.60;83.30;;;;;;4979081;28;19906;-75
2021/08/16 01:45:26;;;;;;;;;;;17.60;83.40;;;;;;4978998;28;19917;-75
2021/08/16 01:47:52;;;;;;;;;;;17.60;83.40;;;;;;4979294;28;20212;-76
2021/08/16 01:50:17;;;;;;;;;;;17.60;83.30;;;;;;4996031;28;19906;-76
2021/08/16 01:52:43;;;;;;;;;;;17.60;83.20;;;;;;4996784;28;20024;-77
2021/08/16 01:55:09;;;;;;;;;;;17.60;83.50;;;;;;4978865;28;19912;-76
2021/08/16 01:57:35;;;;;;;;;;;17.60;83.60;;;;;;4978778;28;19913;-76
2021/08/16 02:00:01;;;;;;;;;;;17.50;83.60;;;;;;4978814;28;19906;-76
2021/08/16 02:02:26;;;;;;;;;;;17.50;83.40;;;;;;4996006;28;19916;-76
2021/08/16 02:04:52;;;;;;;;;;;17.60;83.40;;;;;;4978573;28;20263;-75
2021/08/16 02:07:17;;;;;;;;;;;17.60;83.40;;;;;;4978293;28;19945;-75
2021/08/16 02:09:43;;;;;;;;;;;17.60;83.20;;;;;;4996489;28;20342;-76
2021/08/16 02:12:08;;;;;;;;;;;17.60;83.20;;;;;;4978744;28;19913;-76
2021/08/16 02:14:34;;;;;;;;;;;17.50;83.60;;;;;;4978609;28;20312;-76
2021/08/16 02:16:59;;;;;;;;;;;17.50;83.60;;;;;;4995986;28;19906;-76
2021/08/16 02:19:25;;;;;;;;;;;17.50;84.50;;;;;;4996363;28;19906;-75
2021/08/16 02:21:50;;;;;;;;;;;17.40;84.10;;;;;;4978256;28;20347;-76
2021/08/16 02:24:16;;;;;;;;;;;17.40;84.20;;;;;;4996436;28;19914;-76
2021/08/16 02:26:42;;;;;;;;;;;17.30;84.50;;;;;;4979055;28;20359;-76
2021/08/16 02:29:09;;;;;;;;;;;17.30;84.50;;;;;;4978818;28;19913;-77
2021/08/16 02:31:35;;;;;;;;;;;17.30;84.50;;;;;;4996318;28;19906;-76
2021/08/16 02:34:00;;;;;;;;;;;17.30;85.00;;;;;;4978771;28;19967;-75
2021/08/16 02:36:26;;;;;;;;;;;17.30;85.10;;;;;;4978526;28;20253;-75
2021/08/16 02:38:51;;;;;;;;;;;17.30;85.20;;;;;;4998309;28;19921;-76
2021/08/16 02:41:17;;;;;;;;;;;17.30;85.20;;;;;;5008917;28;20251;-76
2021/08/16 02:43:42;;;;;;;;;;;17.30;85.30;;;;;;4978107;28;19906;-76
2021/08/16 02:46:08;;;;;;;;;;;17.30;85.20;;;;;;4994892;28;19968;-76
2021/08/16 02:48:33;;;;;;;;;;;17.30;85.50;;;;;;4978285;28;19953;-75
2021/08/16 02:50:59;;;;;;;;;;;17.30;85.30;;;;;;5002735;28;19957;-74
2021/08/16 02:53:24;;;;;;;;;;;17.30;85.30;;;;;;5017840;28;20278;-75
2021/08/16 02:55:50;;;;;;;;;;;17.30;85.40;;;;;;5002246;28;20373;-76
2021/08/16 02:58:15;;;;;;;;;;;17.30;85.40;;;;;;4987101;28;20441;-76
2021/08/16 03:00:41;;;;;;;;;;;17.20;85.40;;;;;;4996191;28;19905;-75
2021/08/16 03:03:07;;;;;;;;;;;17.30;85.70;;;;;;4977411;28;20270;-76
2021/08/16 03:05:32;;;;;;;;;;;17.30;86.30;;;;;;4977675;28;19914;-76
2021/08/16 03:07:58;;;;;;;;;;;17.20;86.20;;;;;;4977453;28;20004;-76
2021/08/16 03:10:23;;;;;;;;;;;17.20;86.60;;;;;;4977345;28;19906;-77
2021/08/16 03:12:49;;;;;;;;;;;17.20;86.30;;;;;;4977570;28;19913;-76
2021/08/16 03:15:14;;;;;;;;;;;17.20;86.70;;;;;;4994730;28;19906;-77
2021/08/16 03:17:40;;;;;;;;;;;17.10;86.80;;;;;;4994988;28;20290;-76
2021/08/16 03:20:06;;;;;;;;;;;17.20;87.00;;;;;;5009814;28;20034;-77
2021/08/16 03:22:32;;;;;;;;;;;17.20;86.90;;;;;;4976678;28;19910;-77
2021/08/16 03:24:57;;;;;;;;;;;17.30;86.80;;;;;;4994594;28;19910;-76
2021/08/16 03:27:24;;;;;;;;;;;17.30;86.80;;;;;;4976948;28;20377;-77
2021/08/16 03:29:49;;;;;;;;;;;17.30;86.80;;;;;;4995015;28;19910;-76
2021/08/16 03:32:15;;;;;;;;;;;17.30;86.20;;;;;;4977059;28;19905;-77
2021/08/16 03:34:40;;;;;;;;;;;17.30;86.80;;;;;;4977100;28;20358;-77
2021/08/16 03:37:06;;;;;;;;;;;17.30;87.30;;;;;;4994963;28;19917;-77
2021/08/16 03:39:32;;;;;;;;;;;17.30;87.20;;;;;;4980028;28;19910;-76
2021/08/16 03:41:58;;;;;;;;;;;17.30;86.60;;;;;;4998827;28;19905;-76
2021/08/16 03:44:23;;;;;;;;;;;17.30;87.00;;;;;;4995920;28;19912;-77
2021/08/16 03:46:49;;;;;;;;;;;17.30;87.90;;;;;;4994517;28;20502;-77
2021/08/16 03:49:14;;;;;;;;;;;17.20;87.20;;;;;;4977062;28;19913;-76
2021/08/16 03:51:40;;;;;;;;;;;17.20;88.10;;;;;;4994533;28;19906;-77
2021/08/16 03:54:05;;;;;;;;;;;17.20;88.50;;;;;;4977208;28;19912;-77
2021/08/16 03:56:30;;;;;;;;;;;17.10;87.50;;;;;;4994354;28;19905;-77
2021/08/16 03:58:56;;;;;;;;;;;17.20;88.50;;;;;;4976926;28;19910;-77
2021/08/16 04:01:21;;;;;;;;;;;17.20;88.50;;;;;;4976801;28;20371;-75
2021/08/16 04:03:48;;;;;;;;;;;17.20;88.30;;;;;;4977201;28;19905;-77
2021/08/16 04:06:13;;;;;;;;;;;17.20;88.10;;;;;;4994506;28;19975;-76
2021/08/16 04:08:39;;;;;;;;;;;17.30;88.60;;;;;;4994847;28;20340;-76
2021/08/16 04:11:09;;;;;;;;;;;17.30;88.50;;;;;;4976935;28;19906;-76
2021/08/16 04:13:34;;;;;;;;;;;17.30;88.50;;;;;;4993807;28;19906;-76
2021/08/16 04:16:00;;;;;;;;;;;17.30;88.50;;;;;;4976928;28;19913;-76
2021/08/16 04:18:26;;;;;;;;;;;17.30;88.70;;;;;;4994520;28;20037;-76
2021/08/16 04:20:51;;;;;;;;;;;17.30;88.30;;;;;;4977041;28;19984;-76
2021/08/16 04:23:17;;;;;;;;;;;17.30;88.50;;;;;;4976876;28;20284;-76
2021/08/16 04:25:42;;;;;;;;;;;17.30;88.40;;;;;;4994697;28;19917;-77
2021/08/16 04:28:08;;;;;;;;;;;17.40;88.90;;;;;;4994603;28;19929;-77
2021/08/16 04:30:36;;;;;;;;;;;17.30;88.60;;;;;;4994148;28;19992;-76
2021/08/16 04:33:01;;;;;;;;;;;17.30;88.50;;;;;;4977557;28;19913;-76
2021/08/16 04:35:27;;;;;;;;;;;17.40;88.80;;;;;;4976673;28;19905;-77
2021/08/16 04:37:52;;;;;;;;;;;17.40;88.80;;;;;;4977518;28;19961;-76
2021/08/16 04:40:18;;;;;;;;;;;17.40;89.10;;;;;;4997889;28;19905;-76
2021/08/16 04:42:44;;;;;;;;;;;17.40;88.50;;;;;;4999992;28;19909;-75
2021/08/16 04:45:10;;;;;;;;;;;17.40;88.30;;;;;;4995808;28;19905;-76
2021/08/16 04:47:36;;;;;;;;;;;17.40;88.50;;;;;;5002911;28;19997;-76
2021/08/16 04:50:02;;;;;;;;;;;17.40;88.70;;;;;;4998610;28;19945;-76
2021/08/16 04:52:27;;;;;;;;;;;17.40;88.50;;;;;;4980526;28;19913;-76
2021/08/16 04:54:53;;;;;;;;;;;17.40;87.90;;;;;;4980485;28;19906;-75
2021/08/16 04:57:32;;;;;;;;;;;17.40;88.20;;;;;;4979616;28;19963;-76
2021/08/16 04:59:57;;;;;;;;;;;17.40;88.20;;;;;;4980031;28;19905;-77
2021/08/16 05:02:23;;;;;;;;;;;17.50;87.80;;;;;;4979988;28;19905;-75
2021/08/16 05:04:53;;;;;;;;;;;17.50;88.00;;;;;;4979953;28;20362;-77
2021/08/16 05:07:19;;;;;;;;;;;17.50;88.50;;;;;;4979910;28;20275;-76
2021/08/16 05:09:45;;;;;;;;;;;17.40;88.50;;;;;;4980107;28;20366;-78
2021/08/16 05:12:10;;;;;;;;;;;17.50;87.70;;;;;;4997324;28;19909;-76
2021/08/16 05:14:36;;;;;;;;;;;17.50;88.30;;;;;;4997176;28;19945;-76
2021/08/16 05:17:01;;;;;;;;;;;17.50;88.00;;;;;;4997207;28;20437;-77
2021/08/16 05:19:27;;;;;;;;;;;17.50;87.80;;;;;;4996933;28;19933;-76
2021/08/16 05:21:52;;;;;;;;;;;17.50;87.60;;;;;;4979603;28;20256;-76
2021/08/16 05:24:18;;;;;;;;;;;17.50;87.70;;;;;;4979637;28;20004;-76
2021/08/16 05:26:43;;;;;;;;;;;17.50;88.10;;;;;;4997166;28;19917;-76
2021/08/16 05:29:09;;;;;;;;;;;17.50;88.40;;;;;;4979929;28;19999;-76
2021/08/16 05:31:34;;;;;;;;;;;17.50;88.80;;;;;;4997246;28;20326;-77
2021/08/16 05:34:00;;;;;;;;;;;17.50;88.70;;;;;;4997625;28;19956;-76
2021/08/16 05:36:25;;;;;;;;;;;17.50;88.20;;;;;;4979790;28;20004;-77
2021/08/16 05:38:51;;;;;;;;;;;17.50;88.40;;;;;;4997090;28;19996;-76
2021/08/16 05:41:16;;;;;;;;;;;17.50;87.90;;;;;;4997678;28;20248;-74
2021/08/16 05:43:42;;;;;;;;;;;17.60;88.00;;;;;;4979881;28;19921;-75
2021/08/16 05:46:07;;;;;;;;;;;17.60;87.80;;;;;;4996765;28;20016;-77
2021/08/16 05:48:33;;;;;;;;;;;17.60;87.80;;;;;;4996981;28;20235;-76
2021/08/16 05:50:58;;;;;;;;;;;17.60;87.70;;;;;;4979436;28;19906;-76
2021/08/16 05:53:24;;;;;;;;;;;17.60;87.40;;;;;;4979107;28;20310;-76
2021/08/16 05:55:49;;;;;;;;;;;17.70;87.30;;;;;;4979153;28;20313;-76
2021/08/16 05:58:15;;;;;;;;;;;17.70;88.00;;;;;;4996541;28;19997;-77
2021/08/16 06:00:40;;;;;;;;;;;17.70;87.80;;;;;;4979227;28;19953;-77
2021/08/16 06:03:06;;;;;;;;;;;17.70;88.30;;;;;;4996613;28;19925;-77
2021/08/16 06:05:32;;;;;;;;;;;17.70;88.40;;;;;;4979143;28;19913;-77
2021/08/16 06:07:58;;;;;;;;;;;17.70;88.30;;;;;;4978800;28;19921;-77
2021/08/16 06:10:23;;;;;;;;;;;17.60;88.20;;;;;;4979121;28;20266;-76
2021/08/16 06:12:49;;;;;;;;;;;17.60;88.20;;;;;;4996703;28;19905;-78
2021/08/16 06:15:14;;;;;;;;;;;17.60;88.60;;;;;;4996828;28;19906;-77
2021/08/16 06:17:40;;;;;;;;;;;17.70;87.40;;;;;;4997326;28;19910;-77
2021/08/16 06:20:07;;;;;;;;;;;17.60;88.20;;;;;;5003246;28;20003;-77
2021/08/16 06:22:33;;;;;;;;;;;17.60;88.00;;;;;;4981965;28;19913;-77
2021/08/16 06:24:59;;;;;;;;;;;17.60;88.30;;;;;;4980182;28;19912;-75
2021/08/16 06:27:25;;;;;;;;;;;17.60;87.80;;;;;;5014039;28;19969;-74
2021/08/16 06:29:50;;;;;;;;;;;17.60;88.90;;;;;;5019166;28;19910;-78
2021/08/16 06:32:16;;;;;;;;;;;17.70;89.10;;;;;;5002033;28;19917;-81
2021/08/16 06:34:42;;;;;;;;;;;17.60;88.90;;;;;;4990019;28;19905;-80
2021/08/16 06:37:08;;;;;;;;;;;17.60;90.10;;;;;;4979395;28;19941;-77
2021/08/16 06:39:33;;;;;;;;;;;17.50;88.80;;;;;;4996386;28;19928;-77
2021/08/16 06:41:59;;;;;;;;;;;17.40;90.20;;;;;;4979389;28;19905;-78
2021/08/16 06:44:25;;;;;;;;;;;17.40;90.30;;;;;;4990276;28;19952;-77
2021/08/16 06:46:51;;;;;;;;;;;17.30;90.70;;;;;;5005660;28;19965;-77
2021/08/16 06:49:16;;;;;;;;;;;17.30;91.20;;;;;;4995965;28;19909;-77
2021/08/16 06:51:42;;;;;;;;;;;17.30;90.90;;;;;;4977797;28;19906;-77
2021/08/16 06:54:07;;;;;;;;;;;17.20;91.10;;;;;;4978078;28;19906;-76
2021/08/16 06:56:33;;;;;;;;;;;17.20;91.50;;;;;;4995617;28;19928;-75
2021/08/16 06:58:58;;;;;;;;;;;17.20;91.70;;;;;;4977992;28;19921;-76
2021/08/16 07:01:25;;;;;;;;;;;17.20;91.70;;;;;;4977800;28;19956;-75
2021/08/16 07:03:51;;;;;;;;;;;17.20;91.60;;;;;;4995206;28;19912;-76
2021/08/16 07:06:17;;;;;;;;;;;17.10;92.30;;;;;;4995321;28;19918;-77
2021/08/16 07:08:42;;;;;;;;;;;17.10;92.10;;;;;;4978070;28;19960;-77
2021/08/16 07:11:08;;;;;;;;;;;17.10;92.70;;;;;;4995368;28;20414;-78
2021/08/16 07:13:34;;;;;;;;;;;17.00;92.60;;;;;;4978329;28;20421;-78
2021/08/16 07:16:06;;;;;;;;;;;17.00;92.70;;;;;;4980081;28;19905;-76
2021/08/16 07:18:35;;;;;;;;;;;17.00;92.70;;;;;;4978603;28;19906;-79
2021/08/16 07:21:01;;;;;;;;;;;17.10;92.80;;;;;;4995989;28;19912;-79
2021/08/16 07:23:27;;;;;;;;;;;17.20;92.80;;;;;;4995221;28;20269;-80
2021/08/16 07:25:52;;;;;;;;;;;17.20;92.70;;;;;;4977471;28;20055;-76
2021/08/16 07:28:18;;;;;;;;;;;17.20;92.80;;;;;;4994187;28;20063;-74
2021/08/16 07:30:43;;;;;;;;;;;17.20;93.00;;;;;;4994227;28;20156;-75
2021/08/16 07:33:09;;;;;;;;;;;17.20;93.10;;;;;;4977181;28;19912;-76
2021/08/16 07:35:34;;;;;;;;;;;17.20;92.80;;;;;;4976673;28;20051;-76
2021/08/16 07:38:00;;;;;;;;;;;17.20;93.00;;;;;;4976953;28;19910;-77
2021/08/16 07:40:25;;;;;;;;;;;17.20;93.00;;;;;;4976904;28;19933;-76
2021/08/16 07:42:56;;;;;;;;;;;17.20;92.80;;;;;;4994943;28;19906;-80
2021/08/16 07:45:22;;;;;;;;;;;17.20;92.90;;;;;;4977717;28;19952;-78
2021/08/16 07:48:16;;;;;;;;;;;17.30;92.90;;;;;;4980876;28;19893;-79
2021/08/16 07:50:44;;;;;;;;;;;17.40;92.90;;;;;;4991755;28;19906;-78
2021/08/16 07:53:13;;;;;;;;;;;17.50;92.80;;;;;;4977915;28;19905;-78
2021/08/16 07:55:39;;;;;;;;;;;17.50;92.70;;;;;;4977653;28;20317;-78
2021/08/16 07:58:11;;;;;;;;;;;17.60;92.40;;;;;;5010519;28;19951;-78
2021/08/16 08:00:39;;;;;;;;;;;17.60;92.20;;;;;;4977642;28;20009;-79
2021/08/16 08:03:05;;;;;;;;;;;17.60;92.10;;;;;;4995514;28;19905;-78
2021/08/16 08:05:30;;;;;;;;;;;17.60;92.10;;;;;;4976450;28;19905;-78
2021/08/16 08:07:55;;;;;;;;;;;17.70;92.00;;;;;;4994035;28;19969;-78
2021/08/16 08:10:21;;;;;;;;;;;17.70;91.60;;;;;;4994116;28;19905;-78
2021/08/16 08:12:47;;;;;;;;;;;17.90;90.70;;;;;;4994867;28;19916;-78
2021/08/16 08:15:13;;;;;;;;;;;17.90;91.10;;;;;;4986412;28;20377;-79
2021/08/16 08:17:39;;;;;;;;;;;17.90;91.10;;;;;;4998354;28;19893;-79
2021/08/16 08:20:05;;;;;;;;;;;17.90;90.90;;;;;;4990165;28;20004;-75
2021/08/16 08:22:31;;;;;;;;;;;17.80;89.90;;;;;;4976480;28;19981;-75
2021/08/16 08:24:57;;;;;;;;;;;17.60;90.10;;;;;;4976196;28;20322;-75
2021/08/16 08:27:22;;;;;;;;;;;17.40;88.80;;;;;;4993262;28;20360;-75
2021/08/16 08:29:48;;;;;;;;;;;17.20;89.60;;;;;;4993980;28;19912;-75
2021/08/16 08:32:13;;;;;;;;;;;17.00;90.00;;;;;;4978403;28;19953;-74
2021/08/16 08:34:39;;;;;;;;;;;16.90;89.80;;;;;;4993835;28;19966;-77
2021/08/16 08:37:10;;;;;;;;;;;16.80;90.00;;;;;;4995971;28;19945;-76
2021/08/16 08:39:37;;;;;;;;;;;16.70;90.10;;;;;;4977467;28;19906;-76
2021/08/16 08:42:03;;;;;;;;;;;16.70;90.40;;;;;;4977306;28;19906;-76
2021/08/16 08:44:29;;;;;;;;;;;16.80;90.50;;;;;;4978273;28;19905;-77
2021/08/16 08:46:55;;;;;;;;;;;16.80;90.40;;;;;;4990729;28;19901;-76
2021/08/16 08:49:20;;;;;;;;;;;16.90;90.50;;;;;;4985045;28;20362;-77
2021/08/16 08:51:46;;;;;;;;;;;17.00;90.50;;;;;;4993341;28;19913;-76
2021/08/16 08:54:12;;;;;;;;;;;17.10;90.40;;;;;;4994096;28;19952;-76
2021/08/16 08:56:37;;;;;;;;;;;17.30;90.30;;;;;;4995744;28;20017;-77
2021/08/16 08:59:03;;;;;;;;;;;17.30;90.20;;;;;;5000602;28;19905;-75
2021/08/16 09:01:28;;;;;;;;;;;17.50;90.10;;;;;;4979080;28;19992;-75
2021/08/16 09:03:55;;;;;;;;;;;17.70;89.80;;;;;;4976425;28;20342;-77
2021/08/16 09:06:30;;;;;;;;;;;17.80;89.70;;;;;;4993445;28;20037;-76
2021/08/16 09:08:56;;;;;;;;;;;17.90;88.60;;;;;;4975965;28;19914;-75
2021/08/16 09:11:21;;;;;;;;;;;18.00;88.40;;;;;;4975813;28;19912;-76
2021/08/16 09:13:50;;;;;;;;;;;18.00;87.70;;;;;;4993436;28;19909;-76
2021/08/16 09:16:16;;;;;;;;;;;18.10;87.50;;;;;;4976182;28;20306;-76
2021/08/16 09:18:41;;;;;;;;;;;18.20;86.30;;;;;;4993831;28;19905;-77
2021/08/16 09:21:08;;;;;;;;;;;18.30;85.60;;;;;;4975945;28;19905;-76
2021/08/16 09:23:48;;;;;;;;;;;18.30;86.10;;;;;;4993105;28;20334;-77
2021/08/16 09:26:18;;;;;;;;;;;18.30;86.00;;;;;;4993486;28;19914;-77
2021/08/16 09:28:44;;;;;;;;;;;18.40;86.40;;;;;;4993079;28;19906;-78
2021/08/16 09:31:14;;;;;;;;;;;18.50;85.10;;;;;;4976129;28;19977;-78
2021/08/16 09:33:49;;;;;;;;;;;18.50;83.60;;;;;;4978462;28;19988;-78
2021/08/16 09:36:15;;;;;;;;;;;18.40;84.50;;;;;;4996931;28;19932;-77
2021/08/16 09:38:41;;;;;;;;;;;18.30;84.80;;;;;;4978916;28;19906;-77
2021/08/16 09:41:18;;;;;;;;;;;18.20;85.00;;;;;;4979385;28;19909;-79
2021/08/16 09:43:43;;;;;;;;;;;18.10;85.30;;;;;;4979444;28;20389;-79
2021/08/16 09:46:13;;;;;;;;;;;18.00;84.60;;;;;;4997239;28;19913;-78
2021/08/16 09:48:38;;;;;;;;;;;17.90;84.90;;;;;;4996779;28;19905;-79
2021/08/16 09:51:04;;;;;;;;;;;17.90;85.20;;;;;;4979123;28;19944;-78
2021/08/16 09:53:32;;;;;;;;;;;17.80;85.50;;;;;;4978995;28;20149;-78
2021/08/16 09:56:01;;;;;;;;;;;17.90;85.60;;;;;;4978780;28;19916;-78
2021/08/16 09:58:26;;;;;;;;;;;17.90;85.00;;;;;;4996195;28;19956;-78
2021/08/16 10:00:53;;;;;;;;;;;17.90;84.90;;;;;;4996709;28;20266;-79
2021/08/16 10:03:19;;;;;;;;;;;18.00;85.30;;;;;;4990554;28;19906;-78
2021/08/16 10:05:47;;;;;;;;;;;18.20;85.00;;;;;;5017259;28;20034;-79
2021/08/16 10:08:14;;;;;;;;;;;18.40;83.30;;;;;;5015399;28;19909;-81
2021/08/16 10:10:40;;;;;;;;;;;18.50;82.80;;;;;;5003662;28;19913;-78
2021/08/16 10:13:07;;;;;;;;;;;18.50;82.00;;;;;;4979598;28;19905;-78
2021/08/16 10:15:37;;;;;;;;;;;18.50;81.50;;;;;;4996568;28;20409;-78
2021/08/16 10:18:04;;;;;;;;;;;18.50;81.70;;;;;;4979039;28;20417;-79
2021/08/16 10:20:32;;;;;;;;;;;18.60;81.50;;;;;;4978755;28;19910;-79
2021/08/16 10:22:57;;;;;;;;;;;19.00;81.30;;;;;;4979011;28;19910;-78
2021/08/16 10:25:23;;;;;;;;;;;19.60;80.20;;;;;;4978816;28;19957;-79
2021/08/16 10:27:59;;;;;;;;;;;20.00;76.10;;;;;;4978533;28;19912;-79
2021/08/16 10:30:24;;;;;;;;;;;20.30;72.70;;;;;;4979046;28;19993;-78
2021/08/16 10:33:00;;;;;;;;;;;20.60;73.30;;;;;;4978871;28;19945;-78
2021/08/16 10:35:36;;;;;;;;;;;20.70;71.60;;;;;;4979779;28;19906;-79
2021/08/16 10:38:05;;;;;;;;;;;20.90;69.60;;;;;;4997354;28;20068;-79
2021/08/16 10:40:38;;;;;;;;;;;21.00;70.40;;;;;;4980012;28;19906;-79
2021/08/16 10:43:06;;;;;;;;;;;21.10;69.30;;;;;;4998981;28;19905;-79
2021/08/16 10:45:33;;;;;;;;;;;21.20;68.40;;;;;;4981556;28;19913;-79
2021/08/16 10:48:02;;;;;;;;;;;21.50;67.70;;;;;;5003850;28;19921;-78
2021/08/16 10:50:28;;;;;;;;;;;21.50;67.00;;;;;;5010269;28;20374;-78
2021/08/16 10:53:08;;;;;;;;;;;21.30;65.00;;;;;;4995794;28;19944;-79
2021/08/16 10:55:40;;;;;;;;;;;21.10;64.20;;;;;;4978526;28;19906;-79
2021/08/16 10:58:07;;;;;;;;;;;21.00;66.70;;;;;;4978465;28;19906;-79
2021/08/16 11:00:33;;;;;;;;;;;20.60;65.60;;;;;;4995529;28;19906;-78
2021/08/16 11:02:59;;;;;;;;;;;20.40;66.90;;;;;;4978074;28;19906;-79
2021/08/16 11:05:37;;;;;;;;;;;20.10;67.70;;;;;;4977969;28;19933;-80
2021/08/16 11:08:03;;;;;;;;;;;20.00;70.90;;;;;;4995606;28;20004;-79
2021/08/16 11:10:45;;;;;;;;;;;20.10;70.50;;;;;;4978221;28;20005;-79
2021/08/16 11:13:18;;;;;;;;;;;20.30;71.00;;;;;;4978203;28;19941;-79
2021/08/16 11:15:44;;;;;;;;;;;20.40;69.00;;;;;;4978566;28;19906;-77
2021/08/16 11:18:10;;;;;;;;;;;20.40;67.80;;;;;;4978220;28;19913;-80
2021/08/16 11:20:37;;;;;;;;;;;20.30;67.10;;;;;;4977432;28;20342;-81
2021/08/16 11:23:03;;;;;;;;;;;20.30;69.10;;;;;;4995529;28;19952;-79
2021/08/16 11:25:28;;;;;;;;;;;20.10;66.10;;;;;;4995147;28;19996;-79
2021/08/16 11:27:58;;;;;;;;;;;19.90;68.90;;;;;;4977693;28;19924;-80
2021/08/16 11:30:24;;;;;;;;;;;19.90;69.30;;;;;;4977934;28;20052;-80
2021/08/16 11:32:52;;;;;;;;;;;19.80;69.20;;;;;;4994928;28;20398;-77
2021/08/16 11:35:18;;;;;;;;;;;19.80;70.70;;;;;;4978802;28;19910;-79
2021/08/16 11:37:48;;;;;;;;;;;19.70;69.50;;;;;;4983007;28;19912;-77
2021/08/16 11:40:14;;;;;;;;;;;19.40;70.10;;;;;;4981421;28;19906;-75
2021/08/16 11:42:40;;;;;;;;;;;19.10;73.80;;;;;;4994633;28;19948;-75
2021/08/16 11:45:06;;;;;;;;;;;18.60;74.30;;;;;;4994664;28;19952;-75
2021/08/16 11:47:33;;;;;;;;;;;18.20;76.40;;;;;;4996523;28;19914;-75
2021/08/16 11:50:00;;;;;;;;;;;18.10;77.80;;;;;;4997847;28;19984;-76
2021/08/16 11:52:25;;;;;;;;;;;18.00;78.70;;;;;;4988876;28;19905;-74
2021/08/16 11:54:51;;;;;;;;;;;18.10;78.80;;;;;;5008228;28;19940;-75
2021/08/16 11:57:19;;;;;;;;;;;18.20;79.40;;;;;;4999128;28;20270;-75
2021/08/16 11:59:48;;;;;;;;;;;18.20;79.10;;;;;;4994490;28;19912;-75
2021/08/16 12:02:14;;;;;;;;;;;18.20;79.80;;;;;;4994504;28;19905;-75
2021/08/16 12:04:40;;;;;;;;;;;18.20;78.30;;;;;;4976464;28;19905;-75
2021/08/16 12:07:06;;;;;;;;;;;18.10;78.30;;;;;;4993773;28;19966;-76
2021/08/16 12:09:34;;;;;;;;;;;18.00;77.70;;;;;;4976451;28;19972;-76
2021/08/16 12:12:01;;;;;;;;;;;17.90;77.90;;;;;;4993975;28;19905;-76
2021/08/16 12:14:30;;;;;;;;;;;17.70;78.00;;;;;;4992159;28;19905;-74
2021/08/16 12:16:56;;;;;;;;;;;17.40;78.30;;;;;;4976007;28;19996;-74
2021/08/16 12:19:22;;;;;;;;;;;17.10;78.60;;;;;;4993589;28;19945;-75
2021/08/16 12:21:47;;;;;;;;;;;17.00;80.20;;;;;;4976204;28;19952;-75
2021/08/16 12:24:13;;;;;;;;;;;16.80;81.90;;;;;;4976463;28;20366;-74
2021/08/16 12:26:39;;;;;;;;;;;16.70;82.20;;;;;;4976342;28;20350;-75
2021/08/16 12:29:21;;;;;;;;;;;16.70;82.70;;;;;;4976303;28;19906;-76
2021/08/16 12:31:46;;;;;;;;;;;16.70;82.50;;;;;;4993849;28;19906;-74
2021/08/16 12:34:13;;;;;;;;;;;16.70;82.90;;;;;;4976243;28;19968;-75
2021/08/16 12:36:40;;;;;;;;;;;16.70;83.40;;;;;;4993718;28;19906;-74
2021/08/16 12:39:13;;;;;;;;;;;16.70;83.10;;;;;;4976451;28;20367;-75
2021/08/16 12:41:39;;;;;;;;;;;16.70;82.40;;;;;;4993888;28;19912;-73
2021/08/16 12:44:15;;;;;;;;;;;16.60;84.00;;;;;;4977720;28;20008;-74
2021/08/16 12:46:40;;;;;;;;;;;16.60;84.20;;;;;;4977043;28;19920;-73
2021/08/16 12:49:17;;;;;;;;;;;16.70;83.80;;;;;;4977659;28;19910;-74
2021/08/16 12:51:42;;;;;;;;;;;16.60;84.80;;;;;;4999881;28;19906;-75
2021/08/16 12:54:08;;;;;;;;;;;16.60;84.40;;;;;;4994188;28;20369;-75
2021/08/16 12:56:33;;;;;;;;;;;16.70;85.50;;;;;;4975849;28;19964;-75
2021/08/16 12:59:00;;;;;;;;;;;16.70;84.90;;;;;;4993032;28;20274;-73
2021/08/16 13:01:26;;;;;;;;;;;16.70;84.00;;;;;;4993341;28;19906;-74
2021/08/16 13:03:52;;;;;;;;;;;16.80;85.00;;;;;;4992891;28;20294;-75
2021/08/16 13:06:18;;;;;;;;;;;16.90;85.00;;;;;;4993216;28;20032;-74
2021/08/16 13:08:44;;;;;;;;;;;17.00;84.90;;;;;;4995836;28;19977;-75
2021/08/16 13:11:11;;;;;;;;;;;17.10;84.40;;;;;;4979423;28;19957;-75
2021/08/16 13:13:36;;;;;;;;;;;17.30;84.40;;;;;;4996480;28;19951;-74
2021/08/16 13:16:02;;;;;;;;;;;17.40;83.40;;;;;;4979180;28;20000;-75
2021/08/16 13:18:27;;;;;;;;;;;17.50;83.20;;;;;;4996753;28;19906;-75
2021/08/16 13:20:55;;;;;;;;;;;17.60;82.80;;;;;;4979158;28;19905;-74
2021/08/16 13:23:20;;;;;;;;;;;17.60;82.40;;;;;;4996696;28;19906;-73
2021/08/16 13:25:46;;;;;;;;;;;17.70;81.00;;;;;;4996453;28;19941;-74
2021/08/16 13:28:11;;;;;;;;;;;17.70;80.30;;;;;;4996768;28;20374;-74
2021/08/16 13:30:37;;;;;;;;;;;17.80;80.90;;;;;;4996597;28;19910;-74
2021/08/16 13:33:03;;;;;;;;;;;17.90;80.50;;;;;;4996726;28;19952;-74
2021/08/16 13:35:28;;;;;;;;;;;17.90;79.00;;;;;;4996491;28;19905;-74
2021/08/16 13:37:54;;;;;;;;;;;17.80;79.40;;;;;;4999922;28;19906;-73
2021/08/16 13:40:19;;;;;;;;;;;17.80;79.80;;;;;;4986402;28;19914;-74
2021/08/16 13:42:45;;;;;;;;;;;17.80;79.80;;;;;;5008052;28;19917;-72
2021/08/16 13:45:10;;;;;;;;;;;17.80;79.40;;;;;;4997750;28;19976;-75
2021/08/16 13:47:36;;;;;;;;;;;17.70;78.90;;;;;;4978790;28;19920;-75
2021/08/16 13:50:02;;;;;;;;;;;17.60;79.20;;;;;;4996782;28;19906;-75
2021/08/16 13:52:27;;;;;;;;;;;17.70;75.80;;;;;;4996951;28;20389;-74
2021/08/16 13:54:52;;;;;;;;;;;17.70;75.60;;;;;;4978449;28;19909;-75
2021/08/16 13:57:18;;;;;;;;;;;17.70;73.70;;;;;;4978853;28;20350;-75
2021/08/16 13:59:43;;;;;;;;;;;17.70;73.70;;;;;;4995732;28;19952;-75
2021/08/16 14:02:09;;;;;;;;;;;17.70;70.50;;;;;;4996261;28;19906;-74
2021/08/16 14:04:34;;;;;;;;;;;17.80;70.60;;;;;;4996143;28;19948;-75
2021/08/16 14:07:00;;;;;;;;;;;17.80;70.20;;;;;;4996183;28;19961;-75
2021/08/16 14:09:25;;;;;;;;;;;17.90;70.00;;;;;;4996147;28;19910;-75
2021/08/16 14:11:51;;;;;;;;;;;18.00;69.80;;;;;;4996220;28;20004;-75